Time;durP1;ratioP1;P1;durP2;ratioP2;P2;SDS_P1;SDS_P2;PMS_P1;PMS_P2;Temp;Humidity;BMP_temperature;BMP_pressure;BME280_temperature;BME280_humidity;BME280_pressure;Samples;Min_cycle;Max_cycle;Signal;HPM_P1;HPM_P2
2022/01/29 00:00:09;;;;;;;9.85;4.10;;;;;;;;;;5031258;28;20056;-68
2022/01/29 00:02:34;;;;;;;6.85;4.13;;;;;;;;;;5033000;28;20047;-69
2022/01/29 00:04:59;;;;;;;6.88;3.97;;;;;;;;;;5033007;28;20233;-69
2022/01/29 00:07:24;;;;;;;9.13;4.30;;;;;;;;;;5050702;28;20027;-68
2022/01/29 00:09:50;;;;;;;6.80;3.67;;;;;;;;;;5066110;28;20027;-68
2022/01/29 00:12:15;;;;;;;9.15;4.00;;;;;;;;;;5035170;28;20029;-68
2022/01/29 00:14:40;;;;;;;7.57;3.80;;;;;;;;;;5033075;28;20021;-69
2022/01/29 00:17:06;;;;;;;6.90;3.72;;;;;;;;;;5057836;28;20024;-69
2022/01/29 00:19:31;;;;;;;8.45;3.90;;;;;;;;;;5052608;28;20070;-69
2022/01/29 00:21:58;;;;;;;6.03;3.85;;;;;;;;;;5051847;28;20044;-68
2022/01/29 00:24:24;;;;;;;6.22;3.78;;;;;;;;;;5070500;28;20032;-68
2022/01/29 00:26:49;;;;;;;11.02;4.10;;;;;;;;;;5047456;28;20033;-68
2022/01/29 00:29:19;;;;;;;5.90;3.90;;;;;;;;;;5050481;28;20383;-68
2022/01/29 00:31:45;;;;;;;7.60;4.00;;;;;;;;;;5048722;28;20041;-69
2022/01/29 00:34:10;;;;;;;6.57;3.85;;;;;;;;;;5032600;28;20434;-69
2022/01/29 00:36:35;;;;;;;4.80;3.40;;;;;;;;;;5032362;28;20032;-69
2022/01/29 00:39:01;;;;;;;9.13;3.78;;;;;;;;;;5050229;28;20056;-69
2022/01/29 00:41:26;;;;;;;7.38;4.15;;;;;;;;;;5031704;28;20439;-68
2022/01/29 00:43:51;;;;;;;8.65;4.35;;;;;;;;;;5050092;28;20480;-69
2022/01/29 00:46:17;;;;;;;8.20;4.05;;;;;;;;;;5050383;28;20033;-68
2022/01/29 00:48:42;;;;;;;5.65;3.58;;;;;;;;;;5032795;28;20399;-68
2022/01/29 00:51:07;;;;;;;11.27;4.55;;;;;;;;;;5050158;28;20021;-68
2022/01/29 00:53:33;;;;;;;8.25;4.05;;;;;;;;;;5049409;28;20541;-70
2022/01/29 00:55:58;;;;;;;11.20;4.25;;;;;;;;;;5050110;28;20048;-68
2022/01/29 00:58:23;;;;;;;13.27;3.97;;;;;;;;;;5050005;28;20025;-68
2022/01/29 01:00:49;;;;;;;7.18;4.63;;;;;;;;;;5049117;28;20491;-68
2022/01/29 01:03:14;;;;;;;7.80;4.35;;;;;;;;;;5031402;28;20112;-69
2022/01/29 01:05:39;;;;;;;8.05;4.28;;;;;;;;;;5031327;28;20059;-68
2022/01/29 01:08:05;;;;;;;8.55;4.30;;;;;;;;;;5049802;28;20049;-68
2022/01/29 01:10:30;;;;;;;13.43;4.80;;;;;;;;;;5066451;28;20104;-69
2022/01/29 01:12:55;;;;;;;14.35;4.40;;;;;;;;;;5051360;28;20029;-68
2022/01/29 01:15:21;;;;;;;9.25;4.60;;;;;;;;;;5062726;28;20395;-69
2022/01/29 01:17:46;;;;;;;10.20;5.05;;;;;;;;;;5032114;28;20403;-68
2022/01/29 01:20:11;;;;;;;7.90;5.10;;;;;;;;;;5049885;28;20394;-68
2022/01/29 01:22:37;;;;;;;7.10;4.78;;;;;;;;;;5031046;28;20087;-68
2022/01/29 01:25:02;;;;;;;11.73;5.03;;;;;;;;;;5049754;28;20380;-68
2022/01/29 01:27:28;;;;;;;9.90;5.00;;;;;;;;;;5050177;28;20532;-69
2022/01/29 01:29:53;;;;;;;12.02;5.30;;;;;;;;;;5045710;28;20024;-68
2022/01/29 01:32:18;;;;;;;7.43;4.85;;;;;;;;;;5049919;28;20048;-68
2022/01/29 01:34:49;;;;;;;10.77;5.30;;;;;;;;;;5069020;28;20325;-68
2022/01/29 01:37:28;;;;;;;10.98;5.10;;;;;;;;;;5052823;28;20082;-69
2022/01/29 01:39:53;;;;;;;9.07;5.38;;;;;;;;;;5053820;28;20487;-68
2022/01/29 01:42:19;;;;;;;7.85;5.18;;;;;;;;;;5051640;28;20095;-69
2022/01/29 01:44:46;;;;;;;9.18;5.28;;;;;;;;;;5068865;28;20036;-69
2022/01/29 01:47:16;;;;;;;11.43;5.63;;;;;;;;;;5052112;28;20508;-69
2022/01/29 01:49:41;;;;;;;11.23;6.25;;;;;;;;;;5052196;28;20021;-68
2022/01/29 01:52:10;;;;;;;11.35;5.93;;;;;;;;;;5069699;28;20025;-69
2022/01/29 01:54:35;;;;;;;8.65;6.13;;;;;;;;;;5050762;28;20449;-69
2022/01/29 01:57:01;;;;;;;13.25;5.75;;;;;;;;;;5051819;28;20021;-68
2022/01/29 01:59:27;;;;;;;11.70;5.95;;;;;;;;;;5051462;28;20028;-69
2022/01/29 02:01:52;;;;;;;8.82;5.57;;;;;;;;;;5068226;28;20041;-68
2022/01/29 02:04:18;;;;;;;7.75;5.32;;;;;;;;;;5039141;28;20032;-69
2022/01/29 02:06:43;;;;;;;9.85;5.65;;;;;;;;;;5069456;28;20028;-69
2022/01/29 02:09:10;;;;;;;11.95;5.63;;;;;;;;;;5051391;28;20044;-68
2022/01/29 02:11:39;;;;;;;9.45;5.88;;;;;;;;;;5059894;28;20033;-68
2022/01/29 02:14:04;;;;;;;11.32;6.35;;;;;;;;;;5031486;28;20063;-69
2022/01/29 02:16:31;;;;;;;10.70;6.45;;;;;;;;;;5049384;28;20526;-68
2022/01/29 02:18:57;;;;;;;12.93;6.28;;;;;;;;;;5035321;28;20425;-69
2022/01/29 02:21:27;;;;;;;9.55;5.80;;;;;;;;;;5037074;28;20029;-69
2022/01/29 02:23:52;;;;;;;10.40;5.65;;;;;;;;;;5034736;28;20044;-68
2022/01/29 02:26:18;;;;;;;10.18;6.18;;;;;;;;;;5034512;28;20025;-69
2022/01/29 02:28:43;;;;;;;9.18;5.72;;;;;;;;;;5034866;28;20112;-68
2022/01/29 02:31:08;;;;;;;9.00;5.40;;;;;;;;;;5051633;28;20071;-68
2022/01/29 02:33:34;;;;;;;9.68;5.10;;;;;;;;;;5052959;28;20375;-69
2022/01/29 02:36:00;;;;;;;9.35;5.50;;;;;;;;;;5033969;28;20028;-69
2022/01/29 02:38:26;;;;;;;10.98;6.63;;;;;;;;;;5034772;28;20021;-68
2022/01/29 02:40:55;;;;;;;10.20;5.82;;;;;;;;;;5072510;28;20439;-69
2022/01/29 02:43:23;;;;;;;9.50;5.72;;;;;;;;;;5055234;28;20029;-68
2022/01/29 02:45:52;;;;;;;11.25;6.10;;;;;;;;;;5053649;28;20025;-69
2022/01/29 02:48:17;;;;;;;9.88;5.97;;;;;;;;;;5062098;28;20086;-69
2022/01/29 02:50:42;;;;;;;10.60;5.97;;;;;;;;;;5034538;28;20021;-69
2022/01/29 02:53:08;;;;;;;11.73;6.20;;;;;;;;;;5052333;28;20029;-68
2022/01/29 02:55:33;;;;;;;12.18;6.15;;;;;;;;;;5051475;28;20052;-69
2022/01/29 02:57:58;;;;;;;10.98;6.03;;;;;;;;;;5051854;28;20074;-68
2022/01/29 03:00:24;;;;;;;11.70;5.90;;;;;;;;;;5040576;28;20045;-68
2022/01/29 03:02:49;;;;;;;9.57;6.05;;;;;;;;;;5072424;28;20032;-69
2022/01/29 03:05:15;;;;;;;11.55;6.50;;;;;;;;;;5053798;28;20020;-69
2022/01/29 03:07:40;;;;;;;8.32;5.63;;;;;;;;;;5053783;28;20506;-69
2022/01/29 03:10:05;;;;;;;12.40;6.20;;;;;;;;;;5051457;28;20074;-68
2022/01/29 03:12:31;;;;;;;13.35;6.22;;;;;;;;;;5054401;28;20020;-69
2022/01/29 03:14:56;;;;;;;12.98;6.70;;;;;;;;;;5040674;28;20087;-68
2022/01/29 03:17:21;;;;;;;9.10;6.22;;;;;;;;;;5049992;28;20057;-68
2022/01/29 03:19:47;;;;;;;11.02;6.65;;;;;;;;;;5050482;28;20036;-68
2022/01/29 03:22:12;;;;;;;12.82;6.50;;;;;;;;;;5033816;28;20025;-69
2022/01/29 03:24:37;;;;;;;11.27;6.22;;;;;;;;;;5051429;28;20028;-69
2022/01/29 03:27:03;;;;;;;14.00;6.68;;;;;;;;;;5033476;28;20025;-69
2022/01/29 03:29:28;;;;;;;11.93;5.70;;;;;;;;;;5050585;28;20021;-69
2022/01/29 03:31:53;;;;;;;13.00;6.85;;;;;;;;;;5050591;28;20032;-69
2022/01/29 03:34:19;;;;;;;15.10;6.43;;;;;;;;;;5036232;28;20395;-68
2022/01/29 03:36:44;;;;;;;9.65;6.05;;;;;;;;;;5053326;28;20391;-69
2022/01/29 03:39:09;;;;;;;11.55;5.60;;;;;;;;;;5052693;28;20402;-68
2022/01/29 03:41:36;;;;;;;11.75;6.07;;;;;;;;;;5071381;28;20044;-69
2022/01/29 03:44:05;;;;;;;7.65;5.15;;;;;;;;;;5071182;28;20462;-69
2022/01/29 03:46:32;;;;;;;7.75;4.65;;;;;;;;;;5064119;28;20441;-69
2022/01/29 03:48:57;;;;;;;8.27;4.95;;;;;;;;;;5070767;28;20024;-69
2022/01/29 03:51:22;;;;;;;10.32;5.53;;;;;;;;;;5071143;28;20498;-69
2022/01/29 03:53:47;;;;;;;10.18;5.28;;;;;;;;;;5071054;28;20016;-69
2022/01/29 03:56:13;;;;;;;8.57;4.40;;;;;;;;;;5056958;28;20047;-69
2022/01/29 03:58:39;;;;;;;6.40;3.97;;;;;;;;;;5052780;28;20021;-69
2022/01/29 04:01:04;;;;;;;6.13;3.90;;;;;;;;;;5052150;28;20028;-69
2022/01/29 04:03:29;;;;;;;7.40;3.90;;;;;;;;;;5042589;28;20029;-69
2022/01/29 04:05:55;;;;;;;5.18;3.42;;;;;;;;;;5033133;28;20032;-69
2022/01/29 04:08:20;;;;;;;4.50;3.03;;;;;;;;;;5048754;28;20635;-69
2022/01/29 04:10:47;;;;;;;7.43;3.38;;;;;;;;;;5050584;28;20044;-69
2022/01/29 04:13:14;;;;;;;4.25;2.85;;;;;;;;;;5035585;28;20031;-69
2022/01/29 04:15:39;;;;;;;3.45;2.40;;;;;;;;;;5052973;28;20433;-68
2022/01/29 04:18:05;;;;;;;3.92;2.40;;;;;;;;;;5032610;28;20075;-68
2022/01/29 04:20:30;;;;;;;3.40;2.60;;;;;;;;;;5066386;28;20025;-69
2022/01/29 04:22:55;;;;;;;3.92;2.10;;;;;;;;;;5049949;28;20029;-69
2022/01/29 04:25:21;;;;;;;3.63;2.10;;;;;;;;;;5057486;28;20048;-69
2022/01/29 04:27:48;;;;;;;1.95;1.75;;;;;;;;;;5070289;28;20052;-69
2022/01/29 04:30:43;;;;;;;3.97;1.98;;;;;;;;;;5069066;28;20020;-69
2022/01/29 04:33:14;;;;;;;5.30;1.85;;;;;;;;;;5050094;28;20541;-69
2022/01/29 04:35:40;;;;;;;2.17;1.73;;;;;;;;;;5034912;28;20025;-69
2022/01/29 04:38:05;;;;;;;2.03;1.83;;;;;;;;;;5032335;28;20060;-69
2022/01/29 04:40:31;;;;;;;2.00;1.50;;;;;;;;;;5031608;28;20116;-68
2022/01/29 04:42:56;;;;;;;1.95;1.67;;;;;;;;;;5050616;28;20104;-69
2022/01/29 04:45:22;;;;;;;1.73;1.63;;;;;;;;;;5058971;28;20239;-69
2022/01/29 04:47:47;;;;;;;2.13;1.92;;;;;;;;;;5036721;28;20079;-69
2022/01/29 04:50:12;;;;;;;1.80;1.40;;;;;;;;;;5049690;28;20025;-69
2022/01/29 04:52:38;;;;;;;3.33;1.70;;;;;;;;;;5032453;28;20557;-68
2022/01/29 04:55:03;;;;;;;4.28;1.98;;;;;;;;;;5038253;28;20345;-69
2022/01/29 04:57:29;;;;;;;1.50;1.40;;;;;;;;;;5070542;28;20459;-69
2022/01/29 04:59:54;;;;;;;1.48;1.23;;;;;;;;;;5066945;28;20032;-69
2022/01/29 05:02:19;;;;;;;2.67;1.60;;;;;;;;;;5069160;28;20032;-69
2022/01/29 05:04:45;;;;;;;1.60;1.50;;;;;;;;;;5052311;28;20029;-69
2022/01/29 05:07:10;;;;;;;1.48;1.38;;;;;;;;;;5070241;28;20025;-69
2022/01/29 05:09:36;;;;;;;1.73;1.30;;;;;;;;;;5069975;28;20021;-68
2022/01/29 05:12:02;;;;;;;1.33;1.23;;;;;;;;;;5069635;28;20025;-68
2022/01/29 05:14:40;;;;;;;4.13;1.60;;;;;;;;;;5070328;28;20028;-69
2022/01/29 05:27:52;;;;;;;0.98;0.98;;;;;;;;;;5069763;28;20568;-68
2022/01/29 05:30:17;;;;;;;2.05;1.00;;;;;;;;;;5050653;28;20029;-69
2022/01/29 05:32:42;;;;;;;1.20;1.08;;;;;;;;;;5051423;28;20078;-68
2022/01/29 05:35:08;;;;;;;1.15;1.05;;;;;;;;;;5069579;28;20024;-69
2022/01/29 05:37:33;;;;;;;1.98;1.23;;;;;;;;;;5069720;28;20157;-69
2022/01/29 05:39:59;;;;;;;2.85;1.17;;;;;;;;;;5069407;28;20363;-69
2022/01/29 05:42:24;;;;;;;0.70;0.70;;;;;;;;;;5068944;28;20581;-68
2022/01/29 05:44:49;;;;;;;1.33;0.80;;;;;;;;;;5069704;28;20103;-68
2022/01/29 05:47:14;;;;;;;1.05;0.70;;;;;;;;;;5069688;28;20609;-68
2022/01/29 05:49:40;;;;;;;0.85;0.70;;;;;;;;;;5069371;28;20505;-69
2022/01/29 05:52:05;;;;;;;0.90;0.90;;;;;;;;;;5070637;28;20021;-69
2022/01/29 05:54:31;;;;;;;2.67;0.90;;;;;;;;;;5073253;28;20027;-68
2022/01/29 05:56:57;;;;;;;0.90;0.90;;;;;;;;;;5073513;28;20020;-68
2022/01/29 05:59:22;;;;;;;0.73;0.68;;;;;;;;;;5072989;28;20540;-68
2022/01/29 06:01:47;;;;;;;1.00;1.00;;;;;;;;;;5054403;28;20119;-69
2022/01/29 06:04:13;;;;;;;1.02;0.93;;;;;;;;;;5073341;28;20119;-69
2022/01/29 06:06:38;;;;;;;0.82;0.82;;;;;;;;;;5073096;28;20159;-68
2022/01/29 06:09:04;;;;;;;1.00;0.98;;;;;;;;;;5073164;28;20117;-69
2022/01/29 06:11:31;;;;;;;0.93;0.93;;;;;;;;;;5072648;28;20039;-69
2022/01/29 06:13:57;;;;;;;0.80;0.80;;;;;;;;;;5054481;28;20024;-68
2022/01/29 06:16:22;;;;;;;0.95;0.85;;;;;;;;;;5055169;28;20113;-69
2022/01/29 06:18:47;;;;;;;0.90;0.90;;;;;;;;;;5072919;28;20033;-68
2022/01/29 06:21:14;;;;;;;1.52;0.85;;;;;;;;;;5072612;28;20017;-68
2022/01/29 06:23:39;;;;;;;1.23;1.02;;;;;;;;;;5054576;28;20366;-68
2022/01/29 06:26:06;;;;;;;0.70;0.70;;;;;;;;;;5072826;28;20028;-69
2022/01/29 06:28:31;;;;;;;0.85;0.85;;;;;;;;;;5055225;28;20441;-69
2022/01/29 06:30:57;;;;;;;1.08;0.98;;;;;;;;;;5053649;28;20170;-69
2022/01/29 06:33:22;;;;;;;1.38;0.90;;;;;;;;;;5054248;28;20031;-68
2022/01/29 06:35:48;;;;;;;0.82;0.82;;;;;;;;;;5072606;28;20401;-68
2022/01/29 06:38:13;;;;;;;0.80;0.80;;;;;;;;;;5054495;28;20226;-69
2022/01/29 06:40:39;;;;;;;0.68;0.68;;;;;;;;;;5072385;28;20056;-69
2022/01/29 06:43:04;;;;;;;1.10;0.93;;;;;;;;;;5054461;28;20028;-68
2022/01/29 06:45:33;;;;;;;1.55;1.10;;;;;;;;;;5071883;28;20028;-68
2022/01/29 06:47:59;;;;;;;0.70;0.70;;;;;;;;;;5054682;28;20679;-69
2022/01/29 06:50:24;;;;;;;0.90;0.90;;;;;;;;;;5054457;28;20024;-69
2022/01/29 06:52:50;;;;;;;1.23;1.17;;;;;;;;;;5049376;28;20071;-70
2022/01/29 06:55:15;;;;;;;0.90;0.90;;;;;;;;;;5050162;28;20025;-71
2022/01/29 06:57:40;;;;;;;1.00;0.90;;;;;;;;;;5032329;28;20025;-72
2022/01/29 07:00:07;;;;;;;1.00;0.90;;;;;;;;;;5034558;28;20022;-71
2022/01/29 07:02:33;;;;;;;2.45;1.05;;;;;;;;;;5011618;28;20115;-71
2022/01/29 07:04:58;;;;;;;0.98;0.80;;;;;;;;;;5047442;28;20376;-71
2022/01/29 07:07:24;;;;;;;0.82;0.82;;;;;;;;;;5049406;28;20032;-71
2022/01/29 07:09:49;;;;;;;10.82;1.33;;;;;;;;;;5049480;28;20021;-71
2022/01/29 07:12:14;;;;;;;1.10;1.00;;;;;;;;;;5031380;28;20029;-71
2022/01/29 07:14:40;;;;;;;2.10;0.77;;;;;;;;;;5048331;28;20028;-72
2022/01/29 07:17:12;;;;;;;6.72;0.90;;;;;;;;;;5031095;28;20028;-72
2022/01/29 07:19:37;;;;;;;0.98;0.88;;;;;;;;;;5032316;28;20033;-71
2022/01/29 07:22:03;;;;;;;1.10;0.65;;;;;;;;;;5015677;28;20051;-71
2022/01/29 07:24:29;;;;;;;1.58;1.10;;;;;;;;;;5029633;28;20068;-71
2022/01/29 07:26:54;;;;;;;0.88;0.88;;;;;;;;;;5047795;28;20377;-71
2022/01/29 07:29:20;;;;;;;1.02;0.73;;;;;;;;;;5048804;28;20095;-71
2022/01/29 07:31:45;;;;;;;0.80;0.80;;;;;;;;;;5048424;28;20068;-71
2022/01/29 07:34:10;;;;;;;0.80;0.80;;;;;;;;;;5031592;28;20029;-71
2022/01/29 07:36:36;;;;;;;0.73;0.70;;;;;;;;;;5048255;28;20028;-71
2022/01/29 07:39:01;;;;;;;3.10;0.70;;;;;;;;;;5045903;28;20021;-71
2022/01/29 07:41:26;;;;;;;0.63;0.63;;;;;;;;;;5047674;28;20086;-71
2022/01/29 07:43:52;;;;;;;3.80;0.80;;;;;;;;;;5030020;28;20036;-71
2022/01/29 07:46:17;;;;;;;0.70;0.70;;;;;;;;;;5048343;28;20017;-71
2022/01/29 07:48:42;;;;;;;0.52;0.52;;;;;;;;;;5047844;28;20021;-71
2022/01/29 07:51:08;;;;;;;0.50;0.50;;;;;;;;;;5031902;28;20029;-72
2022/01/29 07:53:33;;;;;;;1.60;0.90;;;;;;;;;;5047030;28;20032;-72
2022/01/29 07:55:58;;;;;;;0.60;0.60;;;;;;;;;;5047560;28;20086;-71
2022/01/29 07:58:24;;;;;;;0.63;0.63;;;;;;;;;;5044952;28;20390;-71
2022/01/29 08:00:49;;;;;;;0.70;0.70;;;;;;;;;;5044869;28;20163;-71
2022/01/29 08:03:14;;;;;;;0.50;0.50;;;;;;;;;;5045507;28;20021;-71
2022/01/29 08:05:39;;;;;;;0.70;0.70;;;;;;;;;;5049203;28;20047;-71
2022/01/29 08:08:05;;;;;;;3.92;0.73;;;;;;;;;;5046135;28;20040;-71
2022/01/29 08:10:30;;;;;;;2.80;0.70;;;;;;;;;;5045656;28;20443;-71
2022/01/29 08:12:55;;;;;;;3.50;0.70;;;;;;;;;;5027702;28;20403;-71
2022/01/29 08:15:21;;;;;;;1.23;0.60;;;;;;;;;;5046664;28;20515;-71
2022/01/29 08:17:46;;;;;;;0.70;0.70;;;;;;;;;;5045010;28;20013;-72
2022/01/29 08:20:12;;;;;;;3.03;0.63;;;;;;;;;;5046685;28;20032;-71
2022/01/29 08:22:37;;;;;;;0.70;0.70;;;;;;;;;;5048477;28;20056;-72
2022/01/29 08:25:04;;;;;;;0.50;0.50;;;;;;;;;;5046016;28;20075;-72
2022/01/29 08:27:30;;;;;;;0.68;0.68;;;;;;;;;;5047270;28;20052;-72
2022/01/29 08:29:55;;;;;;;0.63;0.63;;;;;;;;;;5027981;28;20802;-71
2022/01/29 08:32:21;;;;;;;1.65;0.50;;;;;;;;;;5046302;28;20028;-71
2022/01/29 08:34:47;;;;;;;1.65;0.60;;;;;;;;;;5046310;28;20218;-71
2022/01/29 08:37:12;;;;;;;0.60;0.60;;;;;;;;;;5044117;28;20064;-72
2022/01/29 08:39:37;;;;;;;2.95;0.70;;;;;;;;;;5047418;28;20594;-72
2022/01/29 08:42:03;;;;;;;0.63;0.63;;;;;;;;;;5026436;28;20042;-71
2022/01/29 08:44:28;;;;;;;0.50;0.50;;;;;;;;;;5027993;28;20486;-72
2022/01/29 08:46:54;;;;;;;1.20;0.60;;;;;;;;;;5028148;28;20086;-72
2022/01/29 08:49:19;;;;;;;1.75;0.60;;;;;;;;;;5045366;28;20024;-71
2022/01/29 08:51:44;;;;;;;0.70;0.70;;;;;;;;;;5023293;28;20033;-71
2022/01/29 08:54:10;;;;;;;0.88;0.88;;;;;;;;;;5028194;28;20033;-71
2022/01/29 08:56:35;;;;;;;2.42;0.80;;;;;;;;;;5028069;28;20033;-72
2022/01/29 08:59:00;;;;;;;1.38;1.27;;;;;;;;;;5026361;28;20043;-72
2022/01/29 09:01:26;;;;;;;0.57;0.57;;;;;;;;;;5044704;28;20122;-72
2022/01/29 09:03:51;;;;;;;0.55;0.55;;;;;;;;;;5011944;28;20454;-71
2022/01/29 09:06:16;;;;;;;0.73;0.73;;;;;;;;;;5045723;28;20514;-71
2022/01/29 09:08:45;;;;;;;1.15;0.85;;;;;;;;;;5029454;28;20509;-71
2022/01/29 09:11:11;;;;;;;0.70;0.70;;;;;;;;;;5028371;28;20021;-72
2022/01/29 09:13:36;;;;;;;3.67;2.20;;;;;;;;;;5044866;28;20037;-72
2022/01/29 09:16:01;;;;;;;2.33;1.60;;;;;;;;;;5028392;28;20357;-72
2022/01/29 09:18:27;;;;;;;0.95;0.95;;;;;;;;;;5028983;28;20049;-71
2022/01/29 09:20:52;;;;;;;7.72;4.85;;;;;;;;;;5046074;28;20029;-71
2022/01/29 09:23:17;;;;;;;8.65;3.88;;;;;;;;;;5010578;28;20545;-72
2022/01/29 09:25:43;;;;;;;5.25;3.00;;;;;;;;;;5029677;28;20355;-72
2022/01/29 09:28:10;;;;;;;9.18;5.00;;;;;;;;;;5049401;28;20039;-72
2022/01/29 09:30:35;;;;;;;7.30;4.70;;;;;;;;;;5048873;28;20056;-71
2022/01/29 09:33:00;;;;;;;10.23;3.58;;;;;;;;;;5051488;28;20520;-72
2022/01/29 09:35:26;;;;;;;6.35;3.63;;;;;;;;;;5016617;28;20067;-72
2022/01/29 09:37:51;;;;;;;2.75;2.28;;;;;;;;;;5015904;28;20608;-72
2022/01/29 09:40:17;;;;;;;5.00;2.28;;;;;;;;;;5050906;28;20033;-71
2022/01/29 09:42:45;;;;;;;2.17;1.95;;;;;;;;;;5032492;28;20357;-72
2022/01/29 09:45:15;;;;;;;5.05;2.00;;;;;;;;;;5031898;28;20047;-72
2022/01/29 09:47:45;;;;;;;1.00;1.00;;;;;;;;;;5032378;28;20211;-72
2022/01/29 09:50:11;;;;;;;1.17;1.08;;;;;;;;;;5032437;28;20361;-72
2022/01/29 09:52:36;;;;;;;2.35;0.90;;;;;;;;;;5034433;28;20036;-71
2022/01/29 09:55:04;;;;;;;1.55;1.45;;;;;;;;;;5031163;28;20029;-72
2022/01/29 09:57:29;;;;;;;0.80;0.80;;;;;;;;;;5015738;28;20040;-72
2022/01/29 09:59:54;;;;;;;0.90;0.90;;;;;;;;;;5014805;28;20061;-72
2022/01/29 10:02:19;;;;;;;1.10;1.00;;;;;;;;;;5027994;28;20052;-72
2022/01/29 10:04:46;;;;;;;0.90;0.90;;;;;;;;;;5051111;28;20143;-71
2022/01/29 10:07:16;;;;;;;0.55;0.55;;;;;;;;;;5052774;28;20575;-72
2022/01/29 10:09:41;;;;;;;1.00;1.00;;;;;;;;;;5051105;28;20483;-72
2022/01/29 10:12:26;;;;;;;0.80;0.80;;;;;;;;;;5050317;28;20114;-72
2022/01/29 10:14:56;;;;;;;1.25;1.15;;;;;;;;;;5033939;28;20040;-72
2022/01/29 10:17:41;;;;;;;0.82;0.82;;;;;;;;;;5010852;28;20025;-72
2022/01/29 10:20:16;;;;;;;0.80;0.80;;;;;;;;;;5032393;28;20093;-72
2022/01/29 10:22:41;;;;;;;;;;;;;;;;;;5049268;28;20158;-69
2022/01/29 10:25:11;;;;;;;0.70;0.70;;;;;;;;;;5047471;28;20015;-72
2022/01/29 10:27:36;;;;;;;2.47;0.80;;;;;;;;;;5029717;28;20386;-71
2022/01/29 10:30:02;;;;;;;0.80;0.80;;;;;;;;;;5029977;28;20024;-71
2022/01/29 10:32:29;;;;;;;0.80;0.80;;;;;;;;;;5029384;28;20504;-71
2022/01/29 10:34:59;;;;;;;1.23;0.98;;;;;;;;;;5032740;28;20133;-71
2022/01/29 10:37:25;;;;;;;1.20;0.70;;;;;;;;;;5049309;28;20025;-72
2022/01/29 10:39:58;;;;;;;0.77;0.77;;;;;;;;;;5016895;28;20029;-72
2022/01/29 10:42:28;;;;;;;3.22;2.92;;;;;;;;;;5029204;28;20037;-71
2022/01/29 10:44:59;;;;;;;1.30;0.98;;;;;;;;;;5030097;28;20040;-72
2022/01/29 10:47:26;;;;;;;1.38;1.27;;;;;;;;;;5049329;28;20029;-72
2022/01/29 10:49:55;;;;;;;1.20;1.20;;;;;;;;;;5030215;28;20563;-71
2022/01/29 10:52:34;;;;;;;6.45;1.30;;;;;;;;;;5048752;28;20052;-72
2022/01/29 10:55:04;;;;;;;1.40;1.30;;;;;;;;;;5013927;28;20091;-72
2022/01/29 10:57:37;;;;;;;1.27;1.25;;;;;;;;;;5014481;28;20078;-72
2022/01/29 11:00:05;;;;;;;1.20;1.10;;;;;;;;;;5013651;28;20104;-72
2022/01/29 11:02:31;;;;;;;1.50;1.40;;;;;;;;;;5048167;28;20039;-72
2022/01/29 11:04:56;;;;;;;2.45;2.00;;;;;;;;;;5046987;28;20033;-71
2022/01/29 11:07:27;;;;;;;3.55;2.03;;;;;;;;;;5033495;28;21336;-71
2022/01/29 11:09:52;;;;;;;1.85;1.65;;;;;;;;;;5015844;28;20020;-72
2022/01/29 11:12:19;;;;;;;2.17;2.00;;;;;;;;;;5014650;28;20115;-71
2022/01/29 11:14:44;;;;;;;6.28;2.08;;;;;;;;;;5029883;28;20067;-71
2022/01/29 11:17:11;;;;;;;1.50;1.40;;;;;;;;;;5031857;28;20044;-72
2022/01/29 11:19:37;;;;;;;2.45;1.20;;;;;;;;;;5048454;28;20459;-71
2022/01/29 11:22:04;;;;;;;1.95;1.75;;;;;;;;;;5030497;28;20483;-71
2022/01/29 11:24:30;;;;;;;1.80;1.55;;;;;;;;;;5047382;28;20355;-72
2022/01/29 11:26:55;;;;;;;2.92;2.13;;;;;;;;;;5013637;28;20055;-71
2022/01/29 11:29:31;;;;;;;4.07;2.50;;;;;;;;;;5028992;28;20032;-71
2022/01/29 11:32:21;;;;;;;3.17;1.90;;;;;;;;;;5030797;28;20040;-71
2022/01/29 11:35:05;;;;;;;7.85;1.85;;;;;;;;;;5047909;28;20775;-71
2022/01/29 11:37:53;;;;;;;1.60;1.40;;;;;;;;;;5048229;28;20925;-71
2022/01/29 11:40:39;;;;;;;2.08;1.27;;;;;;;;;;5034748;28;20029;-71
2022/01/29 11:43:08;;;;;;;1.83;1.70;;;;;;;;;;5033730;28;20040;-71
2022/01/29 11:45:38;;;;;;;4.40;2.85;;;;;;;;;;5046587;28;20025;-71
2022/01/29 11:48:05;;;;;;;2.72;2.28;;;;;;;;;;5047452;28;20064;-71
2022/01/29 11:50:30;;;;;;;4.28;2.40;;;;;;;;;;5025541;28;20048;-71
2022/01/29 11:52:59;;;;;;;6.72;4.47;;;;;;;;;;5047861;28;20456;-71
2022/01/29 11:55:41;;;;;;;3.20;2.42;;;;;;;;;;5029747;28;20037;-71
2022/01/29 11:58:13;;;;;;;2.05;1.50;;;;;;;;;;5009928;28;20060;-72
2022/01/29 12:00:39;;;;;;;2.22;2.03;;;;;;;;;;5046886;28;20630;-71
2022/01/29 12:03:04;;;;;;;2.78;2.00;;;;;;;;;;5029037;28;20033;-70
2022/01/29 12:05:31;;;;;;;5.00;3.58;;;;;;;;;;5030457;28;20035;-70
2022/01/29 12:08:10;;;;;;;2.67;2.38;;;;;;;;;;5030646;28;20047;-71
2022/01/29 12:10:37;;;;;;;2.45;2.22;;;;;;;;;;5014329;28;20075;-71
2022/01/29 12:13:13;;;;;;;2.22;1.70;;;;;;;;;;5014267;28;20427;-72
2022/01/29 12:15:39;;;;;;;2.58;1.50;;;;;;;;;;5027771;28;20033;-71
2022/01/29 12:18:25;;;;;;;1.48;1.38;;;;;;;;;;5029032;28;20027;-71
2022/01/29 12:20:50;;;;;;;3.63;1.30;;;;;;;;;;5011717;28;20032;-70
2022/01/29 12:23:15;;;;;;;2.90;1.88;;;;;;;;;;5012797;28;20021;-71
2022/01/29 12:25:41;;;;;;;2.13;1.90;;;;;;;;;;5029350;28;20033;-71
2022/01/29 12:28:07;;;;;;;5.68;3.15;;;;;;;;;;5048219;28;20379;-71
2022/01/29 12:30:37;;;;;;;1.33;1.27;;;;;;;;;;5028314;28;20037;-71
2022/01/29 12:33:10;;;;;;;1.30;1.20;;;;;;;;;;5013688;28;20032;-71
2022/01/29 12:35:42;;;;;;;1.75;1.65;;;;;;;;;;5046652;28;20043;-71
2022/01/29 12:38:18;;;;;;;1.20;1.20;;;;;;;;;;5043965;28;20089;-70
2022/01/29 12:41:11;;;;;;;1.70;1.60;;;;;;;;;;5012688;28;20082;-71
2022/01/29 12:43:52;;;;;;;1.80;1.40;;;;;;;;;;5007705;28;20037;-70
2022/01/29 12:46:22;;;;;;;1.60;1.50;;;;;;;;;;5029401;28;20111;-71
2022/01/29 12:49:08;;;;;;;1.40;1.30;;;;;;;;;;5028128;28;20032;-71
2022/01/29 12:51:34;;;;;;;3.28;1.67;;;;;;;;;;5029291;28;20025;-71
2022/01/29 12:54:01;;;;;;;1.38;1.27;;;;;;;;;;5027154;28;20025;-71
2022/01/29 12:56:30;;;;;;;1.15;1.10;;;;;;;;;;5044850;28;20040;-71
2022/01/29 12:58:56;;;;;;;1.50;1.40;;;;;;;;;;5044992;28;20021;-71
2022/01/29 13:01:21;;;;;;;1.25;1.15;;;;;;;;;;5025440;28;20033;-70
2022/01/29 13:03:47;;;;;;;1.35;1.25;;;;;;;;;;5028496;28;20495;-71
2022/01/29 13:06:16;;;;;;;1.58;1.20;;;;;;;;;;5029370;28;20475;-72
2022/01/29 13:08:41;;;;;;;1.40;1.30;;;;;;;;;;5044484;28;20057;-71
2022/01/29 13:11:23;;;;;;;1.88;1.50;;;;;;;;;;5026578;28;20079;-71
2022/01/29 13:13:49;;;;;;;4.88;2.65;;;;;;;;;;5025808;28;20445;-71
2022/01/29 13:16:14;;;;;;;6.75;3.22;;;;;;;;;;5046224;28;20060;-72
2022/01/29 13:18:39;;;;;;;3.80;2.22;;;;;;;;;;5024662;28;20091;-71
2022/01/29 13:21:05;;;;;;;3.05;1.80;;;;;;;;;;5044156;28;20341;-71
2022/01/29 13:23:34;;;;;;;1.98;1.70;;;;;;;;;;5010955;28;20033;-71
2022/01/29 13:26:12;;;;;;;1.48;1.38;;;;;;;;;;5026849;28;20031;-71
2022/01/29 13:28:45;;;;;;;1.50;1.40;;;;;;;;;;5044857;28;20074;-71
2022/01/29 13:31:10;;;;;;;2.03;1.40;;;;;;;;;;5043208;28;20040;-71
2022/01/29 13:33:36;;;;;;;4.13;3.22;;;;;;;;;;5026304;28;20090;-72
2022/01/29 13:36:01;;;;;;;2.33;2.10;;;;;;;;;;5045615;28;20040;-72
2022/01/29 13:38:34;;;;;;;3.58;1.50;;;;;;;;;;5027102;28;20079;-72
2022/01/29 13:41:02;;;;;;;2.30;2.10;;;;;;;;;;5025343;28;20048;-70
2022/01/29 13:43:39;;;;;;;1.80;1.70;;;;;;;;;;5024666;28;20069;-71
2022/01/29 13:46:09;;;;;;;2.67;1.92;;;;;;;;;;5012836;28;20033;-72
2022/01/29 13:48:50;;;;;;;2.65;1.50;;;;;;;;;;5043493;28;20029;-72
2022/01/29 13:51:29;;;;;;;1.90;1.80;;;;;;;;;;5011139;28;20025;-70
2022/01/29 13:53:57;;;;;;;4.13;1.50;;;;;;;;;;5013211;28;20025;-71
2022/01/29 13:56:23;;;;;;;2.72;2.50;;;;;;;;;;5029011;28;20083;-69
2022/01/29 13:59:02;;;;;;;2.17;2.03;;;;;;;;;;5010719;28;20041;-72
2022/01/29 14:01:50;;;;;;;1.50;1.40;;;;;;;;;;5018647;28;20044;-72
2022/01/29 14:04:23;;;;;;;1.35;1.30;;;;;;;;;;5028269;28;20628;-71
2022/01/29 14:07:15;;;;;;;3.15;1.63;;;;;;;;;;5044558;28;20504;-72
2022/01/29 14:09:46;;;;;;;2.90;1.58;;;;;;;;;;5029923;28;20033;-71
2022/01/29 14:12:26;;;;;;;1.92;1.60;;;;;;;;;;5027459;28;20116;-71
2022/01/29 14:14:51;;;;;;;1.83;1.67;;;;;;;;;;5016762;28;20041;-70
2022/01/29 14:17:29;;;;;;;1.73;1.55;;;;;;;;;;5049678;28;20480;-71
2022/01/29 14:20:02;;;;;;;2.33;1.65;;;;;;;;;;5032304;28;20659;-70
2022/01/29 14:22:29;;;;;;;1.85;1.75;;;;;;;;;;5032216;28;20071;-70
2022/01/29 14:24:54;;;;;;;2.15;1.90;;;;;;;;;;5026308;28;20032;-70
2022/01/29 14:27:19;;;;;;;1.90;1.80;;;;;;;;;;5030922;28;20067;-71
2022/01/29 14:29:45;;;;;;;2.45;2.25;;;;;;;;;;5032493;28;20025;-71
2022/01/29 14:32:11;;;;;;;2.00;1.80;;;;;;;;;;5046809;28;20057;-70
2022/01/29 14:34:36;;;;;;;4.88;1.80;;;;;;;;;;5029841;28;20024;-70
2022/01/29 14:37:02;;;;;;;2.30;2.10;;;;;;;;;;5031824;28;20031;-71
2022/01/29 14:39:28;;;;;;;2.15;1.95;;;;;;;;;;5028947;28;20090;-71
2022/01/29 14:41:54;;;;;;;2.17;1.98;;;;;;;;;;5030645;28;20445;-70
2022/01/29 14:44:19;;;;;;;2.10;1.90;;;;;;;;;;5030622;28;20047;-70
2022/01/29 14:46:45;;;;;;;1.58;1.40;;;;;;;;;;5015511;28;20037;-70
2022/01/29 14:49:10;;;;;;;1.63;1.50;;;;;;;;;;5032783;28;20032;-70
2022/01/29 14:51:38;;;;;;;2.33;1.92;;;;;;;;;;5014304;28;20552;-71